sensor_id;sensor_type;location;lat;lon;timestamp;temperature;humidity
25346;DHT22;13300;51.032;3.710;2023-05-29T00:02:15;14.80;99.90
25346;DHT22;13300;51.032;3.710;2023-05-29T00:04:41;14.80;99.90
25346;DHT22;13300;51.032;3.710;2023-05-29T00:07:06;14.80;99.90
25346;DHT22;13300;51.032;3.710;2023-05-29T00:09:32;14.70;99.90
25346;DHT22;13300;51.032;3.710;2023-05-29T00:11:58;14.70;99.90
25346;DHT22;13300;51.032;3.710;2023-05-29T00:14:23;14.60;99.90
25346;DHT22;13300;51.032;3.710;2023-05-29T00:16:50;14.60;99.90
25346;DHT22;13300;51.032;3.710;2023-05-29T00:19:16;14.60;99.90
25346;DHT22;13300;51.032;3.710;2023-05-29T00:21:45;14.50;99.90
25346;DHT22;13300;51.032;3.710;2023-05-29T00:24:14;14.50;99.90
25346;DHT22;13300;51.032;3.710;2023-05-29T00:26:40;14.50;99.90
25346;DHT22;13300;51.032;3.710;2023-05-29T00:29:06;14.50;99.90
25346;DHT22;13300;51.032;3.710;2023-05-29T00:31:32;14.40;99.90
25346;DHT22;13300;51.032;3.710;2023-05-29T00:33:57;14.50;99.90
25346;DHT22;13300;51.032;3.710;2023-05-29T00:36:23;14.40;99.90
25346;DHT22;13300;51.032;3.710;2023-05-29T00:38:50;14.30;99.90
25346;DHT22;13300;51.032;3.710;2023-05-29T00:41:16;14.20;99.90
25346;DHT22;13300;51.032;3.710;2023-05-29T00:43:42;14.20;99.90
25346;DHT22;13300;51.032;3.710;2023-05-29T00:46:09;14.20;99.90
25346;DHT22;13300;51.032;3.710;2023-05-29T00:48:38;14.20;99.90
25346;DHT22;13300;51.032;3.710;2023-05-29T00:51:04;14.20;99.90
25346;DHT22;13300;51.032;3.710;2023-05-29T00:53:30;14.20;99.90
25346;DHT22;13300;51.032;3.710;2023-05-29T00:55:58;14.10;99.90
25346;DHT22;13300;51.032;3.710;2023-05-29T00:58:24;14.10;99.90
25346;DHT22;13300;51.032;3.710;2023-05-29T01:00:54;14.10;99.90
25346;DHT22;13300;51.032;3.710;2023-05-29T01:03:20;14.10;99.90
25346;DHT22;13300;51.032;3.710;2023-05-29T01:05:48;14.10;99.90
25346;DHT22;13300;51.032;3.710;2023-05-29T01:08:14;14.10;99.90
25346;DHT22;13300;51.032;3.710;2023-05-29T01:10:40;14.00;99.90
25346;DHT22;13300;51.032;3.710;2023-05-29T01:26:58;13.60;99.90
25346;DHT22;13300;51.032;3.710;2023-05-29T01:29:28;13.50;99.90
25346;DHT22;13300;51.032;3.710;2023-05-29T01:31:56;13.50;99.90
25346;DHT22;13300;51.032;3.710;2023-05-29T01:34:22;13.50;99.90
25346;DHT22;13300;51.032;3.710;2023-05-29T01:36:48;13.50;99.90
25346;DHT22;13300;51.032;3.710;2023-05-29T01:39:14;13.40;99.90
25346;DHT22;13300;51.032;3.710;2023-05-29T01:41:41;13.40;99.90
25346;DHT22;13300;51.032;3.710;2023-05-29T01:44:08;13.40;99.90
25346;DHT22;13300;51.032;3.710;2023-05-29T01:46:36;13.40;99.90
25346;DHT22;13300;51.032;3.710;2023-05-29T01:49:02;13.40;99.90
25346;DHT22;13300;51.032;3.710;2023-05-29T01:51:28;13.40;99.90
25346;DHT22;13300;51.032;3.710;2023-05-29T01:53:54;13.30;99.90
25346;DHT22;13300;51.032;3.710;2023-05-29T01:56:20;13.30;99.90
25346;DHT22;13300;51.032;3.710;2023-05-29T01:58:47;13.30;99.90
25346;DHT22;13300;51.032;3.710;2023-05-29T02:01:13;13.30;99.90
25346;DHT22;13300;51.032;3.710;2023-05-29T02:03:39;13.20;99.90
25346;DHT22;13300;51.032;3.710;2023-05-29T02:06:05;13.20;99.90
25346;DHT22;13300;51.032;3.710;2023-05-29T02:08:32;13.10;99.90
25346;DHT22;13300;51.032;3.710;2023-05-29T02:10:57;13.10;99.90
25346;DHT22;13300;51.032;3.710;2023-05-29T02:13:23;13.20;99.90
25346;DHT22;13300;51.032;3.710;2023-05-29T02:15:49;13.20;99.90
25346;DHT22;13300;51.032;3.710;2023-05-29T02:18:16;13.10;99.90
25346;DHT22;13300;51.032;3.710;2023-05-29T02:20:42;13.10;99.90
25346;DHT22;13300;51.032;3.710;2023-05-29T02:23:09;13.10;99.90
25346;DHT22;13300;51.032;3.710;2023-05-29T02:25:35;13.00;99.90
25346;DHT22;13300;51.032;3.710;2023-05-29T02:28:01;13.00;99.90
25346;DHT22;13300;51.032;3.710;2023-05-29T02:30:28;13.00;99.90
25346;DHT22;13300;51.032;3.710;2023-05-29T02:32:54;13.00;99.90
25346;DHT22;13300;51.032;3.710;2023-05-29T02:35:20;12.90;99.90
25346;DHT22;13300;51.032;3.710;2023-05-29T02:37:48;12.90;99.90
25346;DHT22;13300;51.032;3.710;2023-05-29T02:40:14;12.90;99.90
25346;DHT22;13300;51.032;3.710;2023-05-29T02:42:40;12.90;99.90
25346;DHT22;13300;51.032;3.710;2023-05-29T02:45:06;12.80;99.90
25346;DHT22;13300;51.032;3.710;2023-05-29T02:47:32;12.80;99.90
25346;DHT22;13300;51.032;3.710;2023-05-29T02:49:57;12.90;99.90
25346;DHT22;13300;51.032;3.710;2023-05-29T02:52:23;12.80;99.90
25346;DHT22;13300;51.032;3.710;2023-05-29T02:54:49;12.80;99.90
25346;DHT22;13300;51.032;3.710;2023-05-29T02:57:15;12.80;99.90
25346;DHT22;13300;51.032;3.710;2023-05-29T02:59:41;12.70;99.90
25346;DHT22;13300;51.032;3.710;2023-05-29T03:02:07;12.60;99.90
25346;DHT22;13300;51.032;3.710;2023-05-29T03:04:33;12.60;99.90
25346;DHT22;13300;51.032;3.710;2023-05-29T03:06:59;12.60;99.90
25346;DHT22;13300;51.032;3.710;2023-05-29T03:09:25;12.60;99.90
25346;DHT22;13300;51.032;3.710;2023-05-29T03:11:51;12.50;99.90
25346;DHT22;13300;51.032;3.710;2023-05-29T03:14:17;12.50;99.90
25346;DHT22;13300;51.032;3.710;2023-05-29T03:16:44;12.40;99.90
25346;DHT22;13300;51.032;3.710;2023-05-29T03:19:11;12.40;99.90
25346;DHT22;13300;51.032;3.710;2023-05-29T03:21:36;12.40;99.90
25346;DHT22;13300;51.032;3.710;2023-05-29T03:24:04;12.40;99.90
25346;DHT22;13300;51.032;3.710;2023-05-29T03:26:31;12.40;99.90
25346;DHT22;13300;51.032;3.710;2023-05-29T03:28:56;12.40;99.90
25346;DHT22;13300;51.032;3.710;2023-05-29T03:31:22;12.40;99.90
25346;DHT22;13300;51.032;3.710;2023-05-29T03:33:48;12.40;99.90
25346;DHT22;13300;51.032;3.710;2023-05-29T03:36:14;12.30;99.90
25346;DHT22;13300;51.032;3.710;2023-05-29T03:38:43;12.20;99.90
25346;DHT22;13300;51.032;3.710;2023-05-29T03:41:09;12.20;99.90
25346;DHT22;13300;51.032;3.710;2023-05-29T03:43:34;12.20;99.90
25346;DHT22;13300;51.032;3.710;2023-05-29T03:46:01;12.20;99.90
25346;DHT22;13300;51.032;3.710;2023-05-29T03:48:27;12.20;99.90
25346;DHT22;13300;51.032;3.710;2023-05-29T03:50:53;12.20;99.90
25346;DHT22;13300;51.032;3.710;2023-05-29T03:53:19;12.10;99.90
25346;DHT22;13300;51.032;3.710;2023-05-29T03:55:44;12.20;99.90
25346;DHT22;13300;51.032;3.710;2023-05-29T03:58:10;12.20;99.90
25346;DHT22;13300;51.032;3.710;2023-05-29T04:00:38;12.30;99.90
25346;DHT22;13300;51.032;3.710;2023-05-29T04:03:04;12.20;99.90
25346;DHT22;13300;51.032;3.710;2023-05-29T04:05:29;12.20;99.90
25346;DHT22;13300;51.032;3.710;2023-05-29T04:07:56;12.10;99.90
25346;DHT22;13300;51.032;3.710;2023-05-29T04:10:22;12.10;99.90
25346;DHT22;13300;51.032;3.710;2023-05-29T04:12:48;12.10;99.90
25346;DHT22;13300;51.032;3.710;2023-05-29T04:15:14;12.10;99.90
25346;DHT22;13300;51.032;3.710;2023-05-29T04:17:40;12.10;99.90
25346;DHT22;13300;51.032;3.710;2023-05-29T04:20:06;12.10;99.90
25346;DHT22;13300;51.032;3.710;2023-05-29T04:22:37;12.20;99.90
25346;DHT22;13300;51.032;3.710;2023-05-29T04:25:04;12.20;99.90
25346;DHT22;13300;51.032;3.710;2023-05-29T04:27:30;12.10;99.90
25346;DHT22;13300;51.032;3.710;2023-05-29T04:29:58;12.10;99.90
25346;DHT22;13300;51.032;3.710;2023-05-29T04:32:24;12.20;99.90
25346;DHT22;13300;51.032;3.710;2023-05-29T04:34:50;12.20;99.90
25346;DHT22;13300;51.032;3.710;2023-05-29T04:37:16;12.20;99.90
25346;DHT22;13300;51.032;3.710;2023-05-29T04:39:42;12.20;99.90
25346;DHT22;13300;51.032;3.710;2023-05-29T04:42:08;12.20;99.90
25346;DHT22;13300;51.032;3.710;2023-05-29T04:44:34;12.30;99.90
25346;DHT22;13300;51.032;3.710;2023-05-29T04:47:00;12.30;99.90
25346;DHT22;13300;51.032;3.710;2023-05-29T04:49:29;12.30;99.90
25346;DHT22;13300;51.032;3.710;2023-05-29T04:51:54;12.30;99.90
25346;DHT22;13300;51.032;3.710;2023-05-29T04:54:22;12.40;99.90
25346;DHT22;13300;51.032;3.710;2023-05-29T04:56:48;12.40;99.90
25346;DHT22;13300;51.032;3.710;2023-05-29T04:59:14;12.30;99.90
25346;DHT22;13300;51.032;3.710;2023-05-29T05:01:40;12.30;99.90
25346;DHT22;13300;51.032;3.710;2023-05-29T05:04:08;12.40;99.90
25346;DHT22;13300;51.032;3.710;2023-05-29T05:06:34;12.40;99.90
25346;DHT22;13300;51.032;3.710;2023-05-29T05:09:00;12.50;99.90
25346;DHT22;13300;51.032;3.710;2023-05-29T05:11:27;12.50;99.90
25346;DHT22;13300;51.032;3.710;2023-05-29T05:13:53;12.50;99.90
25346;DHT22;13300;51.032;3.710;2023-05-29T05:16:18;12.60;99.90
25346;DHT22;13300;51.032;3.710;2023-05-29T05:18:44;12.60;99.90
25346;DHT22;13300;51.032;3.710;2023-05-29T05:21:10;12.60;99.90
25346;DHT22;13300;51.032;3.710;2023-05-29T05:23:36;12.60;99.90
25346;DHT22;13300;51.032;3.710;2023-05-29T05:26:02;12.50;99.90
25346;DHT22;13300;51.032;3.710;2023-05-29T05:28:28;12.50;99.90
25346;DHT22;13300;51.032;3.710;2023-05-29T05:30:54;12.60;99.90
25346;DHT22;13300;51.032;3.710;2023-05-29T05:33:19;12.70;99.90
25346;DHT22;13300;51.032;3.710;2023-05-29T05:35:45;12.70;99.90
25346;DHT22;13300;51.032;3.710;2023-05-29T05:38:11;12.80;99.90
25346;DHT22;13300;51.032;3.710;2023-05-29T05:40:37;12.80;99.90
25346;DHT22;13300;51.032;3.710;2023-05-29T05:43:09;12.90;99.90
25346;DHT22;13300;51.032;3.710;2023-05-29T05:45:35;13.00;99.90
25346;DHT22;13300;51.032;3.710;2023-05-29T05:48:01;13.10;99.90
25346;DHT22;13300;51.032;3.710;2023-05-29T05:50:27;13.10;99.90
25346;DHT22;13300;51.032;3.710;2023-05-29T05:52:53;13.30;99.90
25346;DHT22;13300;51.032;3.710;2023-05-29T05:55:19;13.30;99.90
25346;DHT22;13300;51.032;3.710;2023-05-29T05:57:44;13.40;99.90
25346;DHT22;13300;51.032;3.710;2023-05-29T06:00:11;13.50;99.90
25346;DHT22;13300;51.032;3.710;2023-05-29T06:02:37;13.60;99.90
25346;DHT22;13300;51.032;3.710;2023-05-29T06:05:04;13.70;99.90
25346;DHT22;13300;51.032;3.710;2023-05-29T06:07:33;13.80;99.90
25346;DHT22;13300;51.032;3.710;2023-05-29T06:09:58;13.80;99.90
25346;DHT22;13300;51.032;3.710;2023-05-29T06:12:24;13.80;99.90
25346;DHT22;13300;51.032;3.710;2023-05-29T06:14:50;13.90;99.90
25346;DHT22;13300;51.032;3.710;2023-05-29T06:17:16;14.00;99.90
25346;DHT22;13300;51.032;3.710;2023-05-29T06:19:42;14.10;99.90
25346;DHT22;13300;51.032;3.710;2023-05-29T06:22:08;14.10;99.90
25346;DHT22;13300;51.032;3.710;2023-05-29T06:24:34;14.10;99.90
25346;DHT22;13300;51.032;3.710;2023-05-29T06:27:00;14.30;99.90
25346;DHT22;13300;51.032;3.710;2023-05-29T06:29:26;14.50;99.90
25346;DHT22;13300;51.032;3.710;2023-05-29T06:31:52;14.80;99.90
25346;DHT22;13300;51.032;3.710;2023-05-29T06:34:18;14.90;99.90
25346;DHT22;13300;51.032;3.710;2023-05-29T06:36:43;15.00;99.90
25346;DHT22;13300;51.032;3.710;2023-05-29T06:39:09;15.10;99.90
25346;DHT22;13300;51.032;3.710;2023-05-29T06:41:35;15.00;99.90
25346;DHT22;13300;51.032;3.710;2023-05-29T06:44:01;14.90;99.90
25346;DHT22;13300;51.032;3.710;2023-05-29T06:46:27;15.10;99.90
25346;DHT22;13300;51.032;3.710;2023-05-29T06:48:53;15.30;99.90
25346;DHT22;13300;51.032;3.710;2023-05-29T06:51:18;15.50;99.90
25346;DHT22;13300;51.032;3.710;2023-05-29T06:53:44;15.70;99.90
25346;DHT22;13300;51.032;3.710;2023-05-29T06:56:10;15.90;99.90
25346;DHT22;13300;51.032;3.710;2023-05-29T06:58:36;15.80;99.90
25346;DHT22;13300;51.032;3.710;2023-05-29T07:01:01;15.80;99.90
25346;DHT22;13300;51.032;3.710;2023-05-29T07:03:28;15.90;99.90
25346;DHT22;13300;51.032;3.710;2023-05-29T07:05:54;15.90;99.90
25346;DHT22;13300;51.032;3.710;2023-05-29T07:08:20;16.10;99.90
25346;DHT22;13300;51.032;3.710;2023-05-29T07:10:46;16.10;99.90
25346;DHT22;13300;51.032;3.710;2023-05-29T07:13:15;16.30;99.90
25346;DHT22;13300;51.032;3.710;2023-05-29T07:15:42;16.80;99.90
25346;DHT22;13300;51.032;3.710;2023-05-29T07:18:07;17.10;99.90
25346;DHT22;13300;51.032;3.710;2023-05-29T07:20:33;17.50;99.90
25346;DHT22;13300;51.032;3.710;2023-05-29T07:22:59;17.80;99.90
25346;DHT22;13300;51.032;3.710;2023-05-29T07:25:27;17.70;99.90
25346;DHT22;13300;51.032;3.710;2023-05-29T07:27:53;17.90;99.90
25346;DHT22;13300;51.032;3.710;2023-05-29T07:30:19;18.60;99.90
25346;DHT22;13300;51.032;3.710;2023-05-29T07:32:47;18.90;99.90
25346;DHT22;13300;51.032;3.710;2023-05-29T07:35:13;19.80;99.90
25346;DHT22;13300;51.032;3.710;2023-05-29T07:37:38;20.30;99.90
25346;DHT22;13300;51.032;3.710;2023-05-29T07:40:04;20.80;99.90
25346;DHT22;13300;51.032;3.710;2023-05-29T07:42:32;21.00;99.90
25346;DHT22;13300;51.032;3.710;2023-05-29T07:44:58;20.90;99.90
25346;DHT22;13300;51.032;3.710;2023-05-29T07:47:24;21.40;99.90
25346;DHT22;13300;51.032;3.710;2023-05-29T07:49:50;21.70;99.90
25346;DHT22;13300;51.032;3.710;2023-05-29T07:52:17;21.70;99.90
25346;DHT22;13300;51.032;3.710;2023-05-29T07:54:43;21.70;99.90
25346;DHT22;13300;51.032;3.710;2023-05-29T07:57:11;22.00;99.80
25346;DHT22;13300;51.032;3.710;2023-05-29T07:59:40;22.40;98.90
25346;DHT22;13300;51.032;3.710;2023-05-29T08:02:06;22.70;98.30
25346;DHT22;13300;51.032;3.710;2023-05-29T08:04:32;22.50;98.30
25346;DHT22;13300;51.032;3.710;2023-05-29T08:07:00;22.90;97.50
25346;DHT22;13300;51.032;3.710;2023-05-29T08:09:26;23.30;96.90
25346;DHT22;13300;51.032;3.710;2023-05-29T08:11:52;23.60;96.30
25346;DHT22;13300;51.032;3.710;2023-05-29T08:14:18;24.20;95.40
25346;DHT22;13300;51.032;3.710;2023-05-29T08:16:43;24.80;94.00
25346;DHT22;13300;51.032;3.710;2023-05-29T08:19:09;24.80;93.20
25346;DHT22;13300;51.032;3.710;2023-05-29T08:21:37;24.60;93.20
25346;DHT22;13300;51.032;3.710;2023-05-29T08:24:05;24.50;93.00
25346;DHT22;13300;51.032;3.710;2023-05-29T08:26:32;24.00;92.60
25346;DHT22;13300;51.032;3.710;2023-05-29T08:29:00;23.80;93.40
25346;DHT22;13300;51.032;3.710;2023-05-29T08:31:26;24.10;93.20
25346;DHT22;13300;51.032;3.710;2023-05-29T08:33:53;24.30;92.90
25346;DHT22;13300;51.032;3.710;2023-05-29T08:36:18;24.70;91.80
25346;DHT22;13300;51.032;3.710;2023-05-29T08:38:48;24.60;91.60
25346;DHT22;13300;51.032;3.710;2023-05-29T08:43:52;24.00;92.50
25346;DHT22;13300;51.032;3.710;2023-05-29T08:46:18;23.20;92.70
25346;DHT22;13300;51.032;3.710;2023-05-29T08:48:48;23.30;93.30
25346;DHT22;13300;51.032;3.710;2023-05-29T08:51:18;23.60;92.70
25346;DHT22;13300;51.032;3.710;2023-05-29T08:53:46;23.80;92.90
25346;DHT22;13300;51.032;3.710;2023-05-29T08:56:14;24.20;92.30
25346;DHT22;13300;51.032;3.710;2023-05-29T08:58:40;24.90;91.60
25346;DHT22;13300;51.032;3.710;2023-05-29T09:01:06;25.70;90.80
25346;DHT22;13300;51.032;3.710;2023-05-29T09:03:32;25.80;90.00
25346;DHT22;13300;51.032;3.710;2023-05-29T09:05:58;26.10;88.70
25346;DHT22;13300;51.032;3.710;2023-05-29T09:08:25;26.00;89.20
25346;DHT22;13300;51.032;3.710;2023-05-29T09:10:53;25.50;89.40
25346;DHT22;13300;51.032;3.710;2023-05-29T09:13:20;25.70;88.90
25346;DHT22;13300;51.032;3.710;2023-05-29T09:15:46;26.30;88.30
25346;DHT22;13300;51.032;3.710;2023-05-29T09:18:12;26.50;87.90
25346;DHT22;13300;51.032;3.710;2023-05-29T09:20:38;25.90;87.80
25346;DHT22;13300;51.032;3.710;2023-05-29T09:23:08;25.90;88.50
25346;DHT22;13300;51.032;3.710;2023-05-29T09:25:39;25.70;88.60
25346;DHT22;13300;51.032;3.710;2023-05-29T09:28:07;26.30;87.70
25346;DHT22;13300;51.032;3.710;2023-05-29T09:30:40;26.20;88.20
25346;DHT22;13300;51.032;3.710;2023-05-29T09:33:08;26.00;87.50
25346;DHT22;13300;51.032;3.710;2023-05-29T09:35:38;26.00;87.60
25346;DHT22;13300;51.032;3.710;2023-05-29T09:38:06;26.00;87.40
25346;DHT22;13300;51.032;3.710;2023-05-29T09:40:33;26.10;87.10
25346;DHT22;13300;51.032;3.710;2023-05-29T09:43:09;26.20;87.40
25346;DHT22;13300;51.032;3.710;2023-05-29T09:45:40;25.70;87.20
25346;DHT22;13300;51.032;3.710;2023-05-29T09:50:42;25.90;87.60
25346;DHT22;13300;51.032;3.710;2023-05-29T09:53:28;25.70;88.70
25346;DHT22;13300;51.032;3.710;2023-05-29T09:55:55;26.10;86.90
25346;DHT22;13300;51.032;3.710;2023-05-29T09:58:23;26.80;85.80
25346;DHT22;13300;51.032;3.710;2023-05-29T10:00:49;27.50;83.50
25346;DHT22;13300;51.032;3.710;2023-05-29T10:03:17;27.50;84.00
25346;DHT22;13300;51.032;3.710;2023-05-29T10:05:46;27.30;84.10
25346;DHT22;13300;51.032;3.710;2023-05-29T10:08:14;27.00;84.90
25346;DHT22;13300;51.032;3.710;2023-05-29T10:11:03;27.10;85.40
25346;DHT22;13300;51.032;3.710;2023-05-29T10:13:34;27.90;85.50
25346;DHT22;13300;51.032;3.710;2023-05-29T10:16:01;27.80;82.20
25346;DHT22;13300;51.032;3.710;2023-05-29T10:18:58;27.30;82.90
25346;DHT22;13300;51.032;3.710;2023-05-29T10:21:27;26.80;84.30
25346;DHT22;13300;51.032;3.710;2023-05-29T10:23:54;27.00;83.90
25346;DHT22;13300;51.032;3.710;2023-05-29T10:26:27;26.70;84.00
25346;DHT22;13300;51.032;3.710;2023-05-29T10:34:50;27.20;83.20
25346;DHT22;13300;51.032;3.710;2023-05-29T10:39:49;27.50;80.70
25346;DHT22;13300;51.032;3.710;2023-05-29T10:42:40;27.90;80.60
25346;DHT22;13300;51.032;3.710;2023-05-29T10:45:07;28.60;80.40
25346;DHT22;13300;51.032;3.710;2023-05-29T10:47:33;28.60;79.30
25346;DHT22;13300;51.032;3.710;2023-05-29T10:49:59;28.30;79.20
25346;DHT22;13300;51.032;3.710;2023-05-29T10:52:26;28.10;79.50
25346;DHT22;13300;51.032;3.710;2023-05-29T10:54:54;28.20;78.50
25346;DHT22;13300;51.032;3.710;2023-05-29T10:57:24;28.40;79.40
25346;DHT22;13300;51.032;3.710;2023-05-29T11:00:07;28.70;77.70
25346;DHT22;13300;51.032;3.710;2023-05-29T11:02:39;28.80;77.50
25346;DHT22;13300;51.032;3.710;2023-05-29T11:05:17;28.80;78.30
25346;DHT22;13300;51.032;3.710;2023-05-29T11:07:58;28.90;77.60
25346;DHT22;13300;51.032;3.710;2023-05-29T11:10:43;29.20;76.40
25346;DHT22;13300;51.032;3.710;2023-05-29T11:13:10;29.50;77.60
25346;DHT22;13300;51.032;3.710;2023-05-29T11:15:37;29.20;75.80
25346;DHT22;13300;51.032;3.710;2023-05-29T11:18:07;29.10;77.40
25346;DHT22;13300;51.032;3.710;2023-05-29T11:20:42;29.60;75.90
25346;DHT22;13300;51.032;3.710;2023-05-29T11:23:15;30.20;75.50
25346;DHT22;13300;51.032;3.710;2023-05-29T11:25:44;30.50;74.90
25346;DHT22;13300;51.032;3.710;2023-05-29T11:28:13;30.20;74.00
25346;DHT22;13300;51.032;3.710;2023-05-29T11:33:09;29.90;74.90
25346;DHT22;13300;51.032;3.710;2023-05-29T11:35:38;30.00;74.30
25346;DHT22;13300;51.032;3.710;2023-05-29T11:38:04;30.00;73.90
25346;DHT22;13300;51.032;3.710;2023-05-29T11:40:35;30.30;73.70
25346;DHT22;13300;51.032;3.710;2023-05-29T11:43:01;30.60;73.70
25346;DHT22;13300;51.032;3.710;2023-05-29T11:45:27;30.20;74.40
25346;DHT22;13300;51.032;3.710;2023-05-29T11:47:59;30.40;73.20
25346;DHT22;13300;51.032;3.710;2023-05-29T11:50:27;30.40;73.40
25346;DHT22;13300;51.032;3.710;2023-05-29T11:52:53;30.10;73.20
25346;DHT22;13300;51.032;3.710;2023-05-29T11:55:20;29.90;73.70
25346;DHT22;13300;51.032;3.710;2023-05-29T11:57:47;30.30;73.60
25346;DHT22;13300;51.032;3.710;2023-05-29T12:00:17;30.00;72.90
25346;DHT22;13300;51.032;3.710;2023-05-29T12:02:44;29.70;74.00
25346;DHT22;13300;51.032;3.710;2023-05-29T12:05:14;29.50;73.50
25346;DHT22;13300;51.032;3.710;2023-05-29T12:07:52;29.40;74.50
25346;DHT22;13300;51.032;3.710;2023-05-29T12:10:19;29.70;73.30
25346;DHT22;13300;51.032;3.710;2023-05-29T12:12:59;29.30;73.80
25346;DHT22;13300;51.032;3.710;2023-05-29T12:15:27;28.60;74.90
25346;DHT22;13300;51.032;3.710;2023-05-29T12:17:56;28.50;74.60
25346;DHT22;13300;51.032;3.710;2023-05-29T12:20:24;28.90;75.30
25346;DHT22;13300;51.032;3.710;2023-05-29T12:22:52;29.60;73.30
25346;DHT22;13300;51.032;3.710;2023-05-29T12:25:21;29.80;72.70
25346;DHT22;13300;51.032;3.710;2023-05-29T12:27:48;30.20;71.90
25346;DHT22;13300;51.032;3.710;2023-05-29T12:30:19;30.10;72.20
25346;DHT22;13300;51.032;3.710;2023-05-29T12:32:52;29.80;73.30
25346;DHT22;13300;51.032;3.710;2023-05-29T12:35:23;29.00;74.50
25346;DHT22;13300;51.032;3.710;2023-05-29T12:37:56;28.80;74.50
25346;DHT22;13300;51.032;3.710;2023-05-29T12:40:23;28.80;74.90
25346;DHT22;13300;51.032;3.710;2023-05-29T12:42:53;28.40;74.70
25346;DHT22;13300;51.032;3.710;2023-05-29T12:45:20;28.70;75.30
25346;DHT22;13300;51.032;3.710;2023-05-29T12:47:54;28.80;74.80
25346;DHT22;13300;51.032;3.710;2023-05-29T12:50:22;29.00;74.50
25346;DHT22;13300;51.032;3.710;2023-05-29T12:53:02;28.80;74.00
25346;DHT22;13300;51.032;3.710;2023-05-29T12:55:31;28.70;75.50
25346;DHT22;13300;51.032;3.710;2023-05-29T13:00:37;29.20;73.70
25346;DHT22;13300;51.032;3.710;2023-05-29T13:03:07;29.40;73.40
25346;DHT22;13300;51.032;3.710;2023-05-29T13:05:33;29.10;73.30
25346;DHT22;13300;51.032;3.710;2023-05-29T13:07:59;28.70;74.10
25346;DHT22;13300;51.032;3.710;2023-05-29T13:10:25;28.50;75.30
25346;DHT22;13300;51.032;3.710;2023-05-29T13:12:53;28.60;73.70
25346;DHT22;13300;51.032;3.710;2023-05-29T13:15:21;28.80;73.90
25346;DHT22;13300;51.032;3.710;2023-05-29T13:17:50;28.90;72.90
25346;DHT22;13300;51.032;3.710;2023-05-29T13:20:16;29.40;72.20
25346;DHT22;13300;51.032;3.710;2023-05-29T13:22:44;29.60;70.60
25346;DHT22;13300;51.032;3.710;2023-05-29T13:25:11;29.50;69.90
25346;DHT22;13300;51.032;3.710;2023-05-29T13:27:40;29.50;70.70
25346;DHT22;13300;51.032;3.710;2023-05-29T13:30:07;29.20;70.70
25346;DHT22;13300;51.032;3.710;2023-05-29T13:32:33;28.80;70.40
25346;DHT22;13300;51.032;3.710;2023-05-29T13:34:59;28.20;72.10
25346;DHT22;13300;51.032;3.710;2023-05-29T13:37:25;28.10;72.80
25346;DHT22;13300;51.032;3.710;2023-05-29T13:39:52;28.10;72.80
25346;DHT22;13300;51.032;3.710;2023-05-29T13:42:19;28.00;72.10
25346;DHT22;13300;51.032;3.710;2023-05-29T13:44:46;27.70;73.00
25346;DHT22;13300;51.032;3.710;2023-05-29T13:47:11;28.00;71.20
25346;DHT22;13300;51.032;3.710;2023-05-29T13:49:37;28.00;71.20
25346;DHT22;13300;51.032;3.710;2023-05-29T13:52:03;27.90;70.40
25346;DHT22;13300;51.032;3.710;2023-05-29T13:54:29;27.80;71.50
25346;DHT22;13300;51.032;3.710;2023-05-29T13:56:57;27.70;70.30
25346;DHT22;13300;51.032;3.710;2023-05-29T13:59:24;27.20;70.90
25346;DHT22;13300;51.032;3.710;2023-05-29T14:01:50;26.70;71.80
25346;DHT22;13300;51.032;3.710;2023-05-29T14:04:16;26.60;71.80
25346;DHT22;13300;51.032;3.710;2023-05-29T14:06:42;26.30;72.90
25346;DHT22;13300;51.032;3.710;2023-05-29T14:09:07;26.50;73.00
25346;DHT22;13300;51.032;3.710;2023-05-29T14:11:36;26.70;71.90
25346;DHT22;13300;51.032;3.710;2023-05-29T14:14:06;27.10;71.30
25346;DHT22;13300;51.032;3.710;2023-05-29T14:16:32;27.10;72.20
25346;DHT22;13300;51.032;3.710;2023-05-29T14:18:58;27.20;71.80
25346;DHT22;13300;51.032;3.710;2023-05-29T14:21:24;27.10;72.60
25346;DHT22;13300;51.032;3.710;2023-05-29T14:23:50;27.00;72.60
25346;DHT22;13300;51.032;3.710;2023-05-29T14:26:16;27.20;73.30
25346;DHT22;13300;51.032;3.710;2023-05-29T14:28:42;27.30;72.40
25346;DHT22;13300;51.032;3.710;2023-05-29T14:31:08;27.40;71.70
25346;DHT22;13300;51.032;3.710;2023-05-29T14:33:34;27.20;72.60
25346;DHT22;13300;51.032;3.710;2023-05-29T14:36:00;26.80;73.00
25346;DHT22;13300;51.032;3.710;2023-05-29T14:38:26;26.40;75.10
25346;DHT22;13300;51.032;3.710;2023-05-29T14:40:52;25.80;75.30
25346;DHT22;13300;51.032;3.710;2023-05-29T14:43:18;25.40;77.10
25346;DHT22;13300;51.032;3.710;2023-05-29T14:45:43;25.20;77.60
25346;DHT22;13300;51.032;3.710;2023-05-29T14:48:09;25.00;78.30
25346;DHT22;13300;51.032;3.710;2023-05-29T14:50:36;25.10;78.10
25346;DHT22;13300;51.032;3.710;2023-05-29T14:53:02;25.40;78.70
25346;DHT22;13300;51.032;3.710;2023-05-29T14:55:28;25.90;77.30
25346;DHT22;13300;51.032;3.710;2023-05-29T14:57:55;26.00;76.20
25346;DHT22;13300;51.032;3.710;2023-05-29T15:00:20;26.00;76.60
25346;DHT22;13300;51.032;3.710;2023-05-29T15:02:46;25.70;76.90
25346;DHT22;13300;51.032;3.710;2023-05-29T15:05:12;25.50;78.20
25346;DHT22;13300;51.032;3.710;2023-05-29T15:07:37;25.60;78.10
25346;DHT22;13300;51.032;3.710;2023-05-29T15:10:04;25.20;78.30
25346;DHT22;13300;51.032;3.710;2023-05-29T15:12:31;25.00;78.60
25346;DHT22;13300;51.032;3.710;2023-05-29T15:14:57;24.80;78.90
25346;DHT22;13300;51.032;3.710;2023-05-29T15:17:23;24.80;79.00
25346;DHT22;13300;51.032;3.710;2023-05-29T15:19:48;25.00;78.60
25346;DHT22;13300;51.032;3.710;2023-05-29T15:22:14;24.80;78.70
25346;DHT22;13300;51.032;3.710;2023-05-29T15:24:40;24.90;78.60
25346;DHT22;13300;51.032;3.710;2023-05-29T15:27:05;24.50;79.70
25346;DHT22;13300;51.032;3.710;2023-05-29T15:29:35;24.00;81.10
25346;DHT22;13300;51.032;3.710;2023-05-29T15:32:03;23.90;81.30
25346;DHT22;13300;51.032;3.710;2023-05-29T15:34:29;23.80;82.00
25346;DHT22;13300;51.032;3.710;2023-05-29T15:36:55;23.50;83.10
25346;DHT22;13300;51.032;3.710;2023-05-29T15:39:21;23.40;83.50
25346;DHT22;13300;51.032;3.710;2023-05-29T15:41:47;23.30;84.50
25346;DHT22;13300;51.032;3.710;2023-05-29T15:44:12;23.10;84.30
25346;DHT22;13300;51.032;3.710;2023-05-29T15:46:38;23.10;84.90
25346;DHT22;13300;51.032;3.710;2023-05-29T15:49:04;23.10;84.50
25346;DHT22;13300;51.032;3.710;2023-05-29T15:51:30;22.80;84.80
25346;DHT22;13300;51.032;3.710;2023-05-29T15:53:57;22.60;85.50
25346;DHT22;13300;51.032;3.710;2023-05-29T15:56:23;22.70;85.70
25346;DHT22;13300;51.032;3.710;2023-05-29T15:58:53;22.70;85.40
25346;DHT22;13300;51.032;3.710;2023-05-29T16:01:19;22.70;86.10
25346;DHT22;13300;51.032;3.710;2023-05-29T16:03:45;22.60;85.80